sensor_id;sensor_type;location;lat;lon;timestamp;pressure;altitude;pressure_sealevel;temperature;humidity
20228;BME280;12195;55.790;37.572;2023-05-01T00:00:00;98825.13;;;8.10;82.75
20228;BME280;12195;55.790;37.572;2023-05-01T00:02:35;98813.55;;;8.14;82.61
20228;BME280;12195;55.790;37.572;2023-05-01T00:05:08;98820.55;;;8.14;82.54
20228;BME280;12195;55.790;37.572;2023-05-01T00:07:41;98815.41;;;8.12;82.73
20228;BME280;12195;55.790;37.572;2023-05-01T00:10:13;98822.22;;;8.15;82.84
20228;BME280;12195;55.790;37.572;2023-05-01T00:12:46;98830.14;;;8.13;82.86
20228;BME280;12195;55.790;37.572;2023-05-01T00:15:18;98833.53;;;8.15;82.64
20228;BME280;12195;55.790;37.572;2023-05-01T00:17:50;98838.84;;;8.14;82.67
20228;BME280;12195;55.790;37.572;2023-05-01T00:20:28;98830.91;;;8.15;82.67
20228;BME280;12195;55.790;37.572;2023-05-01T00:23:00;98826.50;;;8.16;82.95
20228;BME280;12195;55.790;37.572;2023-05-01T00:25:32;98830.62;;;8.20;82.80
20228;BME280;12195;55.790;37.572;2023-05-01T00:28:04;98845.48;;;8.19;83.05
20228;BME280;12195;55.790;37.572;2023-05-01T00:30:36;98838.59;;;8.18;82.99
20228;BME280;12195;55.790;37.572;2023-05-01T00:33:08;98849.55;;;8.25;82.94
20228;BME280;12195;55.790;37.572;2023-05-01T00:35:45;98839.19;;;8.23;83.33
20228;BME280;12195;55.790;37.572;2023-05-01T00:38:17;98845.14;;;8.25;83.60
20228;BME280;12195;55.790;37.572;2023-05-01T00:40:50;98841.50;;;8.28;83.78
20228;BME280;12195;55.790;37.572;2023-05-01T00:43:22;98838.80;;;8.29;83.48
20228;BME280;12195;55.790;37.572;2023-05-01T00:45:54;98835.08;;;8.33;82.92
20228;BME280;12195;55.790;37.572;2023-05-01T00:48:26;98823.88;;;8.31;83.21
20228;BME280;12195;55.790;37.572;2023-05-01T00:51:00;98828.81;;;8.36;82.61
20228;BME280;12195;55.790;37.572;2023-05-01T00:53:33;98823.50;;;8.37;82.25
20228;BME280;12195;55.790;37.572;2023-05-01T00:56:06;98820.88;;;8.37;82.17
20228;BME280;12195;55.790;37.572;2023-05-01T00:58:38;98812.39;;;8.34;81.76
20228;BME280;12195;55.790;37.572;2023-05-01T01:01:11;98809.30;;;8.27;82.04
20228;BME280;12195;55.790;37.572;2023-05-01T01:03:44;98800.78;;;8.24;81.61
20228;BME280;12195;55.790;37.572;2023-05-01T01:06:24;98805.59;;;8.16;82.01
20228;BME280;12195;55.790;37.572;2023-05-01T01:09:05;98811.84;;;8.13;81.87
20228;BME280;12195;55.790;37.572;2023-05-01T01:11:52;98821.66;;;8.10;82.49
20228;BME280;12195;55.790;37.572;2023-05-01T01:14:26;98830.35;;;8.10;82.82
20228;BME280;12195;55.790;37.572;2023-05-01T01:17:07;98845.91;;;8.12;82.86
20228;BME280;12195;55.790;37.572;2023-05-01T01:22:39;98863.80;;;8.19;83.45
20228;BME280;12195;55.790;37.572;2023-05-01T01:25:28;98855.52;;;8.27;83.77
20228;BME280;12195;55.790;37.572;2023-05-01T01:28:14;98852.44;;;8.34;83.21
20228;BME280;12195;55.790;37.572;2023-05-01T01:36:42;98828.47;;;8.42;82.74
20228;BME280;12195;55.790;37.572;2023-05-01T01:39:34;98808.36;;;8.42;82.18
20228;BME280;12195;55.790;37.572;2023-05-01T01:42:05;98803.25;;;8.41;82.34
20228;BME280;12195;55.790;37.572;2023-05-01T01:44:41;98804.84;;;8.43;81.97
20228;BME280;12195;55.790;37.572;2023-05-01T01:47:15;98795.41;;;8.41;81.87
20228;BME280;12195;55.790;37.572;2023-05-01T01:49:50;98780.63;;;8.40;81.74
20228;BME280;12195;55.790;37.572;2023-05-01T01:52:24;98768.58;;;8.37;81.75
20228;BME280;12195;55.790;37.572;2023-05-01T01:54:59;98789.41;;;8.39;81.64
20228;BME280;12195;55.790;37.572;2023-05-01T01:57:38;98800.81;;;8.38;81.38
20228;BME280;12195;55.790;37.572;2023-05-01T02:00:13;98809.60;;;8.37;81.52
20228;BME280;12195;55.790;37.572;2023-05-01T02:02:47;98809.60;;;8.37;81.77
20228;BME280;12195;55.790;37.572;2023-05-01T02:05:21;98780.71;;;8.38;82.14
20228;BME280;12195;55.790;37.572;2023-05-01T02:07:55;98778.86;;;8.40;82.19
20228;BME280;12195;55.790;37.572;2023-05-01T02:10:29;98788.20;;;8.44;81.80
20228;BME280;12195;55.790;37.572;2023-05-01T02:13:02;98795.88;;;8.47;81.93
20228;BME280;12195;55.790;37.572;2023-05-01T02:15:37;98793.05;;;8.50;81.84
20228;BME280;12195;55.790;37.572;2023-05-01T02:18:11;98788.41;;;8.55;81.54
20228;BME280;12195;55.790;37.572;2023-05-01T02:20:45;98787.45;;;8.56;81.31
20228;BME280;12195;55.790;37.572;2023-05-01T02:23:17;98784.45;;;8.62;80.87
20228;BME280;12195;55.790;37.572;2023-05-01T02:25:51;98787.74;;;8.66;80.20
20228;BME280;12195;55.790;37.572;2023-05-01T02:28:26;98781.11;;;8.60;80.17
20228;BME280;12195;55.790;37.572;2023-05-01T02:30:59;98770.64;;;8.60;79.94
20228;BME280;12195;55.790;37.572;2023-05-01T02:33:32;98761.84;;;8.61;80.16
20228;BME280;12195;55.790;37.572;2023-05-01T02:36:04;98767.72;;;8.65;79.55
20228;BME280;12195;55.790;37.572;2023-05-01T02:38:37;98786.16;;;8.63;79.26
20228;BME280;12195;55.790;37.572;2023-05-01T02:41:10;98804.66;;;8.60;79.83
20228;BME280;12195;55.790;37.572;2023-05-01T02:43:44;98822.02;;;8.61;80.16
20228;BME280;12195;55.790;37.572;2023-05-01T02:46:18;98836.69;;;8.64;80.77
20228;BME280;12195;55.790;37.572;2023-05-01T02:48:52;98841.66;;;8.68;80.84
20228;BME280;12195;55.790;37.572;2023-05-01T02:51:26;98844.83;;;8.73;80.35
20228;BME280;12195;55.790;37.572;2023-05-01T02:54:01;98859.50;;;8.76;80.06
20228;BME280;12195;55.790;37.572;2023-05-01T02:56:34;98860.35;;;8.76;79.86
20228;BME280;12195;55.790;37.572;2023-05-01T02:59:06;98864.73;;;8.76;80.44
20228;BME280;12195;55.790;37.572;2023-05-01T03:01:38;98855.85;;;8.78;80.12
20228;BME280;12195;55.790;37.572;2023-05-01T03:04:11;98860.82;;;8.83;80.55
20228;BME280;12195;55.790;37.572;2023-05-01T03:06:43;98853.52;;;8.88;80.37
20228;BME280;12195;55.790;37.572;2023-05-01T03:09:15;98860.16;;;8.93;79.53
20228;BME280;12195;55.790;37.572;2023-05-01T03:11:48;98845.95;;;8.97;79.68
20228;BME280;12195;55.790;37.572;2023-05-01T03:14:20;98844.64;;;9.04;80.02
20228;BME280;12195;55.790;37.572;2023-05-01T03:16:52;98835.44;;;9.11;79.73
20228;BME280;12195;55.790;37.572;2023-05-01T03:19:24;98821.89;;;9.19;79.66
20228;BME280;12195;55.790;37.572;2023-05-01T03:21:56;98822.88;;;9.30;78.39
20228;BME280;12195;55.790;37.572;2023-05-01T03:24:29;98821.34;;;9.40;77.84
20228;BME280;12195;55.790;37.572;2023-05-01T03:27:01;98820.97;;;9.46;77.52
20228;BME280;12195;55.790;37.572;2023-05-01T03:29:34;98824.03;;;9.53;77.44
20228;BME280;12195;55.790;37.572;2023-05-01T03:32:08;98819.86;;;9.63;77.44
20228;BME280;12195;55.790;37.572;2023-05-01T03:34:40;98830.78;;;9.69;77.08
20228;BME280;12195;55.790;37.572;2023-05-01T03:37:12;98840.03;;;9.75;76.46
20228;BME280;12195;55.790;37.572;2023-05-01T03:39:45;98837.13;;;9.79;76.58
20228;BME280;12195;55.790;37.572;2023-05-01T03:42:22;98850.04;;;9.82;75.91
20228;BME280;12195;55.790;37.572;2023-05-01T03:44:55;98849.00;;;9.85;75.58
20228;BME280;12195;55.790;37.572;2023-05-01T03:47:31;98851.52;;;9.86;75.36
20228;BME280;12195;55.790;37.572;2023-05-01T03:50:03;98849.43;;;9.91;75.48
20228;BME280;12195;55.790;37.572;2023-05-01T03:52:36;98846.10;;;10.02;75.39
20228;BME280;12195;55.790;37.572;2023-05-01T03:55:08;98842.99;;;10.09;74.71
20228;BME280;12195;55.790;37.572;2023-05-01T03:57:42;98856.34;;;10.19;74.29
20228;BME280;12195;55.790;37.572;2023-05-01T04:00:16;98853.00;;;10.29;73.33
20228;BME280;12195;55.790;37.572;2023-05-01T04:02:48;98859.33;;;10.39;73.14
20228;BME280;12195;55.790;37.572;2023-05-01T04:05:22;98850.08;;;10.46;72.96
20228;BME280;12195;55.790;37.572;2023-05-01T04:07:56;98845.80;;;10.58;72.65
20228;BME280;12195;55.790;37.572;2023-05-01T04:10:29;98837.28;;;10.67;72.17
20228;BME280;12195;55.790;37.572;2023-05-01T04:13:03;98837.91;;;10.70;71.69
20228;BME280;12195;55.790;37.572;2023-05-01T04:15:37;98843.27;;;10.81;71.94
20228;BME280;12195;55.790;37.572;2023-05-01T04:18:09;98844.19;;;10.93;71.35
20228;BME280;12195;55.790;37.572;2023-05-01T04:20:42;98857.42;;;11.04;71.29
20228;BME280;12195;55.790;37.572;2023-05-01T04:23:14;98860.45;;;11.11;70.09
20228;BME280;12195;55.790;37.572;2023-05-01T04:25:46;98863.80;;;11.13;69.12
20228;BME280;12195;55.790;37.572;2023-05-01T04:28:19;98867.83;;;11.06;69.15
20228;BME280;12195;55.790;37.572;2023-05-01T04:30:52;98860.35;;;10.99;69.33
20228;BME280;12195;55.790;37.572;2023-05-01T04:33:24;98858.98;;;10.94;69.95
20228;BME280;12195;55.790;37.572;2023-05-01T04:35:58;98862.16;;;10.86;70.18
20228;BME280;12195;55.790;37.572;2023-05-01T04:38:31;98862.16;;;10.86;70.18
20228;BME280;12195;55.790;37.572;2023-05-01T04:41:04;98862.36;;;10.83;70.34
20228;BME280;12195;55.790;37.572;2023-05-01T04:43:37;98868.56;;;10.82;70.83
20228;BME280;12195;55.790;37.572;2023-05-01T04:46:09;98867.72;;;10.82;71.21
20228;BME280;12195;55.790;37.572;2023-05-01T04:48:43;98866.80;;;10.83;70.91
20228;BME280;12195;55.790;37.572;2023-05-01T04:51:15;98876.24;;;10.85;70.71
20228;BME280;12195;55.790;37.572;2023-05-01T04:53:48;98881.30;;;10.88;70.92
20228;BME280;12195;55.790;37.572;2023-05-01T04:56:22;98883.92;;;10.88;70.93
20228;BME280;12195;55.790;37.572;2023-05-01T04:58:55;98882.97;;;10.89;70.00
20228;BME280;12195;55.790;37.572;2023-05-01T05:01:29;98887.36;;;10.89;70.48
20228;BME280;12195;55.790;37.572;2023-05-01T05:04:01;98886.31;;;10.91;70.13
20228;BME280;12195;55.790;37.572;2023-05-01T05:06:33;98890.74;;;10.91;69.77
20228;BME280;12195;55.790;37.572;2023-05-01T05:09:06;98879.39;;;10.90;69.98
20228;BME280;12195;55.790;37.572;2023-05-01T05:11:38;98887.36;;;10.89;69.88
20228;BME280;12195;55.790;37.572;2023-05-01T05:14:12;98886.55;;;10.88;70.04
20228;BME280;12195;55.790;37.572;2023-05-01T05:16:45;98877.91;;;10.86;70.16
20228;BME280;12195;55.790;37.572;2023-05-01T05:19:17;98892.20;;;10.82;70.20
20228;BME280;12195;55.790;37.572;2023-05-01T05:21:49;98886.95;;;10.82;70.52
20228;BME280;12195;55.790;37.572;2023-05-01T05:24:22;98875.39;;;10.85;70.47
20228;BME280;12195;55.790;37.572;2023-05-01T05:26:54;98883.17;;;10.86;70.99
20228;BME280;12195;55.790;37.572;2023-05-01T05:29:26;98880.00;;;10.94;70.79
20228;BME280;12195;55.790;37.572;2023-05-01T05:31:58;98883.17;;;10.99;69.95
20228;BME280;12195;55.790;37.572;2023-05-01T05:34:30;98891.23;;;11.08;69.94
20228;BME280;12195;55.790;37.572;2023-05-01T05:37:03;98893.44;;;11.15;69.57
20228;BME280;12195;55.790;37.572;2023-05-01T05:39:37;98891.33;;;11.20;69.38
20228;BME280;12195;55.790;37.572;2023-05-01T05:42:09;98876.61;;;11.30;69.65
20228;BME280;12195;55.790;37.572;2023-05-01T05:44:41;98884.55;;;11.41;69.41
20228;BME280;12195;55.790;37.572;2023-05-01T05:47:13;98890.22;;;11.47;68.27
20228;BME280;12195;55.790;37.572;2023-05-01T05:49:46;98893.48;;;11.51;67.51
20228;BME280;12195;55.790;37.572;2023-05-01T05:52:18;98893.98;;;11.56;67.88
20228;BME280;12195;55.790;37.572;2023-05-01T05:54:51;98895.27;;;11.63;67.14
20228;BME280;12195;55.790;37.572;2023-05-01T05:57:23;98903.45;;;11.71;67.03
20228;BME280;12195;55.790;37.572;2023-05-01T05:59:56;98902.38;;;11.73;66.83
20228;BME280;12195;55.790;37.572;2023-05-01T06:02:31;98904.16;;;11.73;66.61
20228;BME280;12195;55.790;37.572;2023-05-01T06:05:03;98912.05;;;11.73;66.64
20228;BME280;12195;55.790;37.572;2023-05-01T06:07:36;98909.42;;;11.73;66.84
20228;BME280;12195;55.790;37.572;2023-05-01T06:10:09;98906.47;;;11.77;66.73
20228;BME280;12195;55.790;37.572;2023-05-01T06:12:41;98903.59;;;11.80;66.05
20228;BME280;12195;55.790;37.572;2023-05-01T06:15:15;98911.17;;;11.85;65.73
20228;BME280;12195;55.790;37.572;2023-05-01T06:17:49;98914.52;;;11.87;65.57
20228;BME280;12195;55.790;37.572;2023-05-01T06:20:21;98920.63;;;11.87;64.99
20228;BME280;12195;55.790;37.572;2023-05-01T06:22:54;98918.95;;;11.86;64.77
20228;BME280;12195;55.790;37.572;2023-05-01T06:25:32;98927.34;;;11.91;64.17
20228;BME280;12195;55.790;37.572;2023-05-01T06:28:04;98922.27;;;12.01;64.03
20228;BME280;12195;55.790;37.572;2023-05-01T06:30:37;98935.34;;;12.13;64.25
20228;BME280;12195;55.790;37.572;2023-05-01T06:33:09;98935.08;;;12.29;63.67
20228;BME280;12195;55.790;37.572;2023-05-01T06:35:41;98925.80;;;12.47;61.46
20228;BME280;12195;55.790;37.572;2023-05-01T06:38:13;98928.01;;;12.64;61.14
20228;BME280;12195;55.790;37.572;2023-05-01T06:40:47;98925.41;;;12.75;60.29
20228;BME280;12195;55.790;37.572;2023-05-01T06:43:20;98925.30;;;12.87;59.87
20228;BME280;12195;55.790;37.572;2023-05-01T06:45:53;98934.13;;;13.21;60.31
20228;BME280;12195;55.790;37.572;2023-05-01T06:48:25;98930.53;;;13.22;59.00
20228;BME280;12195;55.790;37.572;2023-05-01T06:50:57;98941.09;;;13.33;58.13
20228;BME280;12195;55.790;37.572;2023-05-01T06:53:29;98938.69;;;13.41;57.65
20228;BME280;12195;55.790;37.572;2023-05-01T06:56:02;98945.52;;;13.43;57.45
20228;BME280;12195;55.790;37.572;2023-05-01T06:58:34;98942.05;;;13.54;56.72
20228;BME280;12195;55.790;37.572;2023-05-01T07:01:06;98954.14;;;13.56;55.71
20228;BME280;12195;55.790;37.572;2023-05-01T07:03:39;98958.22;;;13.60;55.76
20228;BME280;12195;55.790;37.572;2023-05-01T07:06:12;98953.53;;;13.75;55.47
20228;BME280;12195;55.790;37.572;2023-05-01T07:08:44;98980.14;;;13.94;55.55
20228;BME280;12195;55.790;37.572;2023-05-01T07:11:16;98972.97;;;13.85;54.90
20228;BME280;12195;55.790;37.572;2023-05-01T07:13:48;98980.37;;;13.91;56.33
20228;BME280;12195;55.790;37.572;2023-05-01T07:16:21;98961.66;;;14.05;55.87
20228;BME280;12195;55.790;37.572;2023-05-01T07:18:53;98977.58;;;14.25;56.31
20228;BME280;12195;55.790;37.572;2023-05-01T07:21:26;98982.66;;;14.49;55.08
20228;BME280;12195;55.790;37.572;2023-05-01T07:23:58;98983.27;;;14.52;54.14
20228;BME280;12195;55.790;37.572;2023-05-01T07:26:30;98980.02;;;14.49;55.24
20228;BME280;12195;55.790;37.572;2023-05-01T07:29:02;98978.44;;;14.57;54.15
20228;BME280;12195;55.790;37.572;2023-05-01T07:31:34;98984.41;;;14.59;53.52
20228;BME280;12195;55.790;37.572;2023-05-01T07:34:08;98985.14;;;14.61;54.07
20228;BME280;12195;55.790;37.572;2023-05-01T07:36:41;98985.99;;;14.62;53.15
20228;BME280;12195;55.790;37.572;2023-05-01T07:39:13;98997.47;;;14.72;53.25
20228;BME280;12195;55.790;37.572;2023-05-01T07:41:47;98992.84;;;14.85;52.86
20228;BME280;12195;55.790;37.572;2023-05-01T07:44:19;98991.95;;;15.16;52.17
20228;BME280;12195;55.790;37.572;2023-05-01T07:46:51;99002.06;;;15.31;52.98
20228;BME280;12195;55.790;37.572;2023-05-01T07:49:24;98998.66;;;15.40;51.23
20228;BME280;12195;55.790;37.572;2023-05-01T07:51:56;99006.09;;;15.46;50.66
20228;BME280;12195;55.790;37.572;2023-05-01T07:54:28;99008.61;;;15.48;50.31
20228;BME280;12195;55.790;37.572;2023-05-01T07:57:01;99006.58;;;15.61;49.62
20228;BME280;12195;55.790;37.572;2023-05-01T07:59:34;99012.40;;;15.85;49.19
20228;BME280;12195;55.790;37.572;2023-05-01T08:02:06;99008.13;;;16.03;48.17
20228;BME280;12195;55.790;37.572;2023-05-01T08:04:39;98997.19;;;16.36;46.94
20228;BME280;12195;55.790;37.572;2023-05-01T08:07:11;98997.19;;;16.36;46.94
20228;BME280;12195;55.790;37.572;2023-05-01T08:09:44;99015.36;;;16.50;46.29
20228;BME280;12195;55.790;37.572;2023-05-01T08:12:17;99027.32;;;16.35;46.07
20228;BME280;12195;55.790;37.572;2023-05-01T08:14:49;99019.58;;;16.13;46.90
20228;BME280;12195;55.790;37.572;2023-05-01T08:17:22;99018.30;;;15.98;47.03
20228;BME280;12195;55.790;37.572;2023-05-01T08:19:55;99028.55;;;15.82;47.15
20228;BME280;12195;55.790;37.572;2023-05-01T08:22:27;99028.55;;;15.82;47.15
20228;BME280;12195;55.790;37.572;2023-05-01T08:24:59;99034.66;;;15.82;47.12
20228;BME280;12195;55.790;37.572;2023-05-01T08:27:32;99042.81;;;16.00;46.96
20228;BME280;12195;55.790;37.572;2023-05-01T08:30:05;99042.81;;;16.00;46.96
20228;BME280;12195;55.790;37.572;2023-05-01T08:32:37;99045.03;;;15.95;46.43
20228;BME280;12195;55.790;37.572;2023-05-01T08:35:10;99054.60;;;15.86;47.00
20228;BME280;12195;55.790;37.572;2023-05-01T08:37:42;99062.52;;;15.77;47.43
20228;BME280;12195;55.790;37.572;2023-05-01T08:40:14;99071.70;;;15.73;47.96
20228;BME280;12195;55.790;37.572;2023-05-01T08:42:47;99076.30;;;15.50;47.29
20228;BME280;12195;55.790;37.572;2023-05-01T08:45:19;99081.41;;;15.42;48.00
20228;BME280;12195;55.790;37.572;2023-05-01T08:47:53;99081.08;;;15.36;48.04
20228;BME280;12195;55.790;37.572;2023-05-01T08:50:27;99081.90;;;15.36;48.19
20228;BME280;12195;55.790;37.572;2023-05-01T08:52:59;99095.86;;;15.38;47.51
20228;BME280;12195;55.790;37.572;2023-05-01T08:55:34;99092.48;;;15.36;48.00
20228;BME280;12195;55.790;37.572;2023-05-01T08:58:08;99098.75;;;15.35;47.46
20228;BME280;12195;55.790;37.572;2023-05-01T09:00:42;99105.58;;;15.38;47.55
20228;BME280;12195;55.790;37.572;2023-05-01T09:03:15;99100.74;;;15.43;47.17
20228;BME280;12195;55.790;37.572;2023-05-01T09:05:49;99099.39;;;15.48;46.78
20228;BME280;12195;55.790;37.572;2023-05-01T09:08:22;99102.03;;;15.48;46.98
20228;BME280;12195;55.790;37.572;2023-05-01T09:10:55;99113.33;;;15.71;45.87
20228;BME280;12195;55.790;37.572;2023-05-01T09:13:30;99107.02;;;15.62;46.12
20228;BME280;12195;55.790;37.572;2023-05-01T09:16:04;99110.93;;;15.68;46.07
20228;BME280;12195;55.790;37.572;2023-05-01T09:18:38;99117.99;;;15.78;46.09
20228;BME280;12195;55.790;37.572;2023-05-01T09:21:11;99120.05;;;16.05;45.42
20228;BME280;12195;55.790;37.572;2023-05-01T09:23:44;99104.55;;;16.61;44.15
20228;BME280;12195;55.790;37.572;2023-05-01T09:26:16;99104.55;;;16.61;44.15
20228;BME280;12195;55.790;37.572;2023-05-01T09:28:48;99118.84;;;17.07;44.61
20228;BME280;12195;55.790;37.572;2023-05-01T09:31:26;99125.42;;;17.22;42.95
20228;BME280;12195;55.790;37.572;2023-05-01T09:34:04;99103.91;;;17.16;41.87
20228;BME280;12195;55.790;37.572;2023-05-01T09:36:37;99103.91;;;17.16;41.87
20228;BME280;12195;55.790;37.572;2023-05-01T09:39:12;99129.02;;;16.83;42.24
20228;BME280;12195;55.790;37.572;2023-05-01T09:41:51;99128.52;;;16.50;42.77
20228;BME280;12195;55.790;37.572;2023-05-01T09:44:23;99161.36;;;16.08;43.11
20228;BME280;12195;55.790;37.572;2023-05-01T09:46:56;99131.98;;;15.90;43.96
20228;BME280;12195;55.790;37.572;2023-05-01T09:49:44;99128.73;;;15.86;44.50
20228;BME280;12195;55.790;37.572;2023-05-01T09:52:18;99134.69;;;16.00;43.92
20228;BME280;12195;55.790;37.572;2023-05-01T09:54:50;99134.69;;;16.00;43.92
20228;BME280;12195;55.790;37.572;2023-05-01T09:57:36;99134.91;;;15.66;44.95
20228;BME280;12195;55.790;37.572;2023-05-01T10:00:10;99140.30;;;15.44;45.87
20228;BME280;12195;55.790;37.572;2023-05-01T10:02:45;99136.64;;;15.25;46.64
20228;BME280;12195;55.790;37.572;2023-05-01T10:05:18;99133.70;;;15.07;47.41
20228;BME280;12195;55.790;37.572;2023-05-01T10:07:58;99142.05;;;14.92;47.68
20228;BME280;12195;55.790;37.572;2023-05-01T10:10:32;99140.18;;;14.72;47.78
20228;BME280;12195;55.790;37.572;2023-05-01T10:13:16;99148.38;;;14.58;48.12
20228;BME280;12195;55.790;37.572;2023-05-01T10:15:49;99161.13;;;14.42;48.48
20228;BME280;12195;55.790;37.572;2023-05-01T10:18:22;99166.36;;;14.20;49.46
20228;BME280;12195;55.790;37.572;2023-05-01T10:20:55;99157.94;;;14.04;49.96
20228;BME280;12195;55.790;37.572;2023-05-01T10:23:27;99169.92;;;13.86;50.44
20228;BME280;12195;55.790;37.572;2023-05-01T10:26:00;99173.13;;;13.67;51.10
20228;BME280;12195;55.790;37.572;2023-05-01T10:28:35;99185.34;;;13.57;51.70
20228;BME280;12195;55.790;37.572;2023-05-01T10:31:07;99187.66;;;13.38;52.03
20228;BME280;12195;55.790;37.572;2023-05-01T10:33:43;99190.64;;;13.10;52.45
20228;BME280;12195;55.790;37.572;2023-05-01T10:36:18;99197.04;;;12.83;53.62
20228;BME280;12195;55.790;37.572;2023-05-01T10:38:50;99210.33;;;12.69;54.13
20228;BME280;12195;55.790;37.572;2023-05-01T10:44:23;99218.83;;;12.49;54.97
20228;BME280;12195;55.790;37.572;2023-05-01T10:46:56;99229.32;;;12.61;54.05
20228;BME280;12195;55.790;37.572;2023-05-01T10:52:20;99247.69;;;12.38;54.99
20228;BME280;12195;55.790;37.572;2023-05-01T10:54:52;99245.04;;;12.25;55.65
20228;BME280;12195;55.790;37.572;2023-05-01T10:57:40;99253.58;;;12.16;55.25
20228;BME280;12195;55.790;37.572;2023-05-01T11:00:12;99264.94;;;11.92;56.04
20228;BME280;12195;55.790;37.572;2023-05-01T11:02:35;99265.95;;;11.77;56.42
20228;BME280;12195;55.790;37.572;2023-05-01T11:05:07;99272.64;;;11.68;56.22
20228;BME280;12195;55.790;37.572;2023-05-01T11:07:40;99278.22;;;11.64;56.41
20228;BME280;12195;55.790;37.572;2023-05-01T11:10:27;99288.72;;;11.37;56.85
20228;BME280;12195;55.790;37.572;2023-05-01T11:12:59;99293.36;;;11.20;57.41
20228;BME280;12195;55.790;37.572;2023-05-01T11:15:32;99301.10;;;10.94;58.87
20228;BME280;12195;55.790;37.572;2023-05-01T11:18:05;99305.98;;;10.86;58.74
20228;BME280;12195;55.790;37.572;2023-05-01T11:20:45;99313.59;;;10.77;59.36
20228;BME280;12195;55.790;37.572;2023-05-01T11:23:18;99310.23;;;10.75;59.65
20228;BME280;12195;55.790;37.572;2023-05-01T11:26:00;99319.70;;;10.77;59.08
20228;BME280;12195;55.790;37.572;2023-05-01T11:28:26;99318.46;;;10.69;59.21
20228;BME280;12195;55.790;37.572;2023-05-01T11:31:00;99326.43;;;10.67;58.74
20228;BME280;12195;55.790;37.572;2023-05-01T11:33:33;99331.04;;;10.50;59.29
20228;BME280;12195;55.790;37.572;2023-05-01T11:36:06;99342.70;;;10.30;60.28
20228;BME280;12195;55.790;37.572;2023-05-01T11:38:49;99350.39;;;10.19;61.28
20228;BME280;12195;55.790;37.572;2023-05-01T11:41:24;99352.61;;;10.11;62.07
20228;BME280;12195;55.790;37.572;2023-05-01T11:43:57;99352.78;;;10.08;62.57
20228;BME280;12195;55.790;37.572;2023-05-01T11:46:33;99369.03;;;10.29;60.86
20228;BME280;12195;55.790;37.572;2023-05-01T11:49:06;99352.39;;;9.85;62.34
20228;BME280;12195;55.790;37.572;2023-05-01T11:51:39;99357.77;;;9.68;62.76
20228;BME280;12195;55.790;37.572;2023-05-01T11:54:11;99364.52;;;9.56;63.22
20228;BME280;12195;55.790;37.572;2023-05-01T11:56:45;99361.83;;;9.42;64.08
20228;BME280;12195;55.790;37.572;2023-05-01T11:59:17;99372.83;;;9.33;65.20
20228;BME280;12195;55.790;37.572;2023-05-01T12:01:51;99374.75;;;9.30;65.10
20228;BME280;12195;55.790;37.572;2023-05-01T12:04:25;99384.98;;;9.50;64.30
20228;BME280;12195;55.790;37.572;2023-05-01T12:06:59;99392.92;;;9.33;64.20
20228;BME280;12195;55.790;37.572;2023-05-01T12:09:32;99403.32;;;9.19;65.35
20228;BME280;12195;55.790;37.572;2023-05-01T12:12:04;99402.27;;;9.06;65.58
20228;BME280;12195;55.790;37.572;2023-05-01T12:14:38;99397.34;;;8.84;66.78
20228;BME280;12195;55.790;37.572;2023-05-01T12:17:11;99412.00;;;8.71;67.29
20228;BME280;12195;55.790;37.572;2023-05-01T12:19:46;99410.61;;;8.64;67.93
20228;BME280;12195;55.790;37.572;2023-05-01T12:22:19;99426.25;;;8.49;67.85
20228;BME280;12195;55.790;37.572;2023-05-01T12:24:52;99435.16;;;8.28;68.89
20228;BME280;12195;55.790;37.572;2023-05-01T12:27:25;99431.21;;;8.19;69.21
20228;BME280;12195;55.790;37.572;2023-05-01T12:29:57;99430.42;;;8.17;69.71
20228;BME280;12195;55.790;37.572;2023-05-01T12:32:32;99432.53;;;8.28;70.26
20228;BME280;12195;55.790;37.572;2023-05-01T12:35:14;99427.84;;;8.34;69.92
20228;BME280;12195;55.790;37.572;2023-05-01T12:37:47;99434.61;;;8.38;69.50
20228;BME280;12195;55.790;37.572;2023-05-01T12:40:20;99436.33;;;8.39;70.47
20228;BME280;12195;55.790;37.572;2023-05-01T12:42:54;99440.31;;;8.46;70.35
20228;BME280;12195;55.790;37.572;2023-05-01T12:45:28;99444.39;;;8.52;70.36
20228;BME280;12195;55.790;37.572;2023-05-01T12:48:00;99447.26;;;8.47;69.92
20228;BME280;12195;55.790;37.572;2023-05-01T12:50:36;99455.11;;;8.47;71.04
20228;BME280;12195;55.790;37.572;2023-05-01T12:53:09;99455.25;;;8.61;71.19
20228;BME280;12195;55.790;37.572;2023-05-01T12:55:43;99460.01;;;8.70;71.81
20228;BME280;12195;55.790;37.572;2023-05-01T12:58:16;99459.64;;;8.78;69.75
20228;BME280;12195;55.790;37.572;2023-05-01T13:00:53;99469.58;;;8.71;70.23
20228;BME280;12195;55.790;37.572;2023-05-01T13:03:28;99467.71;;;8.73;70.40
20228;BME280;12195;55.790;37.572;2023-05-01T13:06:02;99467.31;;;8.81;71.59
20228;BME280;12195;55.790;37.572;2023-05-01T13:08:37;99471.92;;;8.93;72.24
20228;BME280;12195;55.790;37.572;2023-05-01T13:11:15;99475.84;;;9.01;70.72
20228;BME280;12195;55.790;37.572;2023-05-01T13:13:49;99484.30;;;9.06;70.08
20228;BME280;12195;55.790;37.572;2023-05-01T13:16:21;99488.78;;;9.04;71.12
20228;BME280;12195;55.790;37.572;2023-05-01T13:18:54;99492.23;;;9.05;70.17
20228;BME280;12195;55.790;37.572;2023-05-01T13:21:29;99488.00;;;9.02;70.99
20228;BME280;12195;55.790;37.572;2023-05-01T13:24:01;99497.39;;;9.06;69.97
20228;BME280;12195;55.790;37.572;2023-05-01T13:26:35;99496.01;;;8.99;68.24
20228;BME280;12195;55.790;37.572;2023-05-01T13:29:11;99506.35;;;8.85;69.58
20228;BME280;12195;55.790;37.572;2023-05-01T13:31:43;99505.27;;;8.89;70.92
20228;BME280;12195;55.790;37.572;2023-05-01T13:34:20;99504.50;;;9.04;70.63
20228;BME280;12195;55.790;37.572;2023-05-01T13:36:53;99510.19;;;9.12;70.66
20228;BME280;12195;55.790;37.572;2023-05-01T13:39:26;99514.34;;;9.16;69.42
20228;BME280;12195;55.790;37.572;2023-05-01T13:42:00;99511.76;;;9.32;70.24